sensor_id;sensor_type;location;lat;lon;timestamp;temperature;humidity
67586;SHT31;55785;47.946;20.540;2023-03-14T00:00:00;2.85;71.05
67586;SHT31;55785;47.946;20.540;2023-03-14T00:02:26;2.84;71.06
67586;SHT31;55785;47.946;20.540;2023-03-14T00:04:54;2.65;71.91
67586;SHT31;55785;47.946;20.540;2023-03-14T00:07:19;2.62;72.21
67586;SHT31;55785;47.946;20.540;2023-03-14T00:09:45;2.74;71.39
67586;SHT31;55785;47.946;20.540;2023-03-14T00:12:10;2.88;70.41
67586;SHT31;55785;47.946;20.540;2023-03-14T00:14:36;2.90;70.77
67586;SHT31;55785;47.946;20.540;2023-03-14T00:17:01;2.91;70.85
67586;SHT31;55785;47.946;20.540;2023-03-14T00:19:26;2.97;70.62
67586;SHT31;55785;47.946;20.540;2023-03-14T00:21:52;2.84;71.10
67586;SHT31;55785;47.946;20.540;2023-03-14T00:24:17;2.85;71.35
67586;SHT31;55785;47.946;20.540;2023-03-14T00:26:42;2.71;71.05
67586;SHT31;55785;47.946;20.540;2023-03-14T00:29:08;2.60;71.38
67586;SHT31;55785;47.946;20.540;2023-03-14T00:31:33;2.47;71.94
67586;SHT31;55785;47.946;20.540;2023-03-14T00:33:58;2.50;71.76
67586;SHT31;55785;47.946;20.540;2023-03-14T00:36:24;2.44;72.22
67586;SHT31;55785;47.946;20.540;2023-03-14T00:38:51;2.30;72.39
67586;SHT31;55785;47.946;20.540;2023-03-14T00:41:18;2.32;72.40
67586;SHT31;55785;47.946;20.540;2023-03-14T00:43:45;2.30;72.38
67586;SHT31;55785;47.946;20.540;2023-03-14T00:46:11;2.22;72.72
67586;SHT31;55785;47.946;20.540;2023-03-14T00:48:36;2.28;72.27
67586;SHT31;55785;47.946;20.540;2023-03-14T00:51:04;2.29;72.48
67586;SHT31;55785;47.946;20.540;2023-03-14T00:53:29;2.29;72.96
67586;SHT31;55785;47.946;20.540;2023-03-14T00:55:55;2.23;72.66
67586;SHT31;55785;47.946;20.540;2023-03-14T00:58:20;2.30;72.55
67586;SHT31;55785;47.946;20.540;2023-03-14T01:00:46;2.49;70.95
67586;SHT31;55785;47.946;20.540;2023-03-14T01:03:13;2.49;71.35
67586;SHT31;55785;47.946;20.540;2023-03-14T01:05:39;2.67;70.56
67586;SHT31;55785;47.946;20.540;2023-03-14T01:08:04;2.36;72.42
67586;SHT31;55785;47.946;20.540;2023-03-14T01:10:30;2.53;71.51
67586;SHT31;55785;47.946;20.540;2023-03-14T01:12:56;2.62;71.00
67586;SHT31;55785;47.946;20.540;2023-03-14T01:15:21;2.61;70.89
67586;SHT31;55785;47.946;20.540;2023-03-14T01:17:47;2.64;70.51
67586;SHT31;55785;47.946;20.540;2023-03-14T01:20:13;2.56;71.00
67586;SHT31;55785;47.946;20.540;2023-03-14T01:22:40;2.18;72.87
67586;SHT31;55785;47.946;20.540;2023-03-14T01:25:07;2.13;73.29
67586;SHT31;55785;47.946;20.540;2023-03-14T01:27:32;2.18;72.23
67586;SHT31;55785;47.946;20.540;2023-03-14T01:29:58;2.25;72.26
67586;SHT31;55785;47.946;20.540;2023-03-14T01:32:23;2.29;71.45
67586;SHT31;55785;47.946;20.540;2023-03-14T01:34:49;2.19;72.54
67586;SHT31;55785;47.946;20.540;2023-03-14T01:37:14;2.18;72.03
67586;SHT31;55785;47.946;20.540;2023-03-14T01:39:39;2.19;71.87
67586;SHT31;55785;47.946;20.540;2023-03-14T01:42:05;2.06;72.20
67586;SHT31;55785;47.946;20.540;2023-03-14T01:44:53;1.95;72.80
67586;SHT31;55785;47.946;20.540;2023-03-14T01:47:19;1.82;73.00
67586;SHT31;55785;47.946;20.540;2023-03-14T01:49:47;1.77;73.18
67586;SHT31;55785;47.946;20.540;2023-03-14T01:54:54;1.71;73.91
67586;SHT31;55785;47.946;20.540;2023-03-14T01:57:23;1.75;73.54
67586;SHT31;55785;47.946;20.540;2023-03-14T02:00:06;1.61;73.78
67586;SHT31;55785;47.946;20.540;2023-03-14T02:02:32;1.60;73.81
67586;SHT31;55785;47.946;20.540;2023-03-14T02:04:58;1.55;73.75
67586;SHT31;55785;47.946;20.540;2023-03-14T02:07:48;1.44;74.54
67586;SHT31;55785;47.946;20.540;2023-03-14T02:10:15;1.53;74.17
67586;SHT31;55785;47.946;20.540;2023-03-14T02:12:41;1.46;73.96
67586;SHT31;55785;47.946;20.540;2023-03-14T02:15:07;1.32;74.51
67586;SHT31;55785;47.946;20.540;2023-03-14T02:17:33;1.36;74.58
67586;SHT31;55785;47.946;20.540;2023-03-14T02:22:54;1.27;74.63
67586;SHT31;55785;47.946;20.540;2023-03-14T02:25:28;1.26;74.78
67586;SHT31;55785;47.946;20.540;2023-03-14T02:27:56;1.17;74.75
67586;SHT31;55785;47.946;20.540;2023-03-14T02:30:25;1.10;75.18
67586;SHT31;55785;47.946;20.540;2023-03-14T02:35:41;1.05;75.38
67586;SHT31;55785;47.946;20.540;2023-03-14T02:38:34;1.03;75.35
67586;SHT31;55785;47.946;20.540;2023-03-14T02:41:01;1.05;74.99
67586;SHT31;55785;47.946;20.540;2023-03-14T02:43:27;0.84;75.53
67586;SHT31;55785;47.946;20.540;2023-03-14T02:45:52;0.96;75.49
67586;SHT31;55785;47.946;20.540;2023-03-14T02:48:22;0.85;75.80
67586;SHT31;55785;47.946;20.540;2023-03-14T02:50:52;0.81;76.04
67586;SHT31;55785;47.946;20.540;2023-03-14T02:53:23;0.91;75.80
67586;SHT31;55785;47.946;20.540;2023-03-14T02:55:50;0.89;75.52
67586;SHT31;55785;47.946;20.540;2023-03-14T02:58:16;0.93;75.64
67586;SHT31;55785;47.946;20.540;2023-03-14T03:00:42;1.13;75.29
67586;SHT31;55785;47.946;20.540;2023-03-14T03:03:07;1.10;75.11
67586;SHT31;55785;47.946;20.540;2023-03-14T03:05:32;1.12;75.29
67586;SHT31;55785;47.946;20.540;2023-03-14T03:07:58;1.07;75.55
67586;SHT31;55785;47.946;20.540;2023-03-14T03:10:23;1.03;75.52
67586;SHT31;55785;47.946;20.540;2023-03-14T03:12:49;0.91;76.15
67586;SHT31;55785;47.946;20.540;2023-03-14T03:15:14;0.92;76.04
67586;SHT31;55785;47.946;20.540;2023-03-14T03:17:40;1.02;76.00
67586;SHT31;55785;47.946;20.540;2023-03-14T03:20:06;0.99;75.69
67586;SHT31;55785;47.946;20.540;2023-03-14T03:22:31;0.88;75.78
67586;SHT31;55785;47.946;20.540;2023-03-14T03:24:57;0.81;76.12
67586;SHT31;55785;47.946;20.540;2023-03-14T03:27:23;0.88;76.05
67586;SHT31;55785;47.946;20.540;2023-03-14T03:29:48;0.74;76.58
67586;SHT31;55785;47.946;20.540;2023-03-14T03:32:13;0.51;77.37
67586;SHT31;55785;47.946;20.540;2023-03-14T03:34:39;0.53;77.12
67586;SHT31;55785;47.946;20.540;2023-03-14T03:37:04;0.65;76.69
67586;SHT31;55785;47.946;20.540;2023-03-14T03:39:29;0.79;76.46
67586;SHT31;55785;47.946;20.540;2023-03-14T03:41:55;0.68;76.81
67586;SHT31;55785;47.946;20.540;2023-03-14T03:44:20;0.66;77.00
67586;SHT31;55785;47.946;20.540;2023-03-14T03:46:45;0.66;77.33
67586;SHT31;55785;47.946;20.540;2023-03-14T03:49:11;0.91;77.73
67586;SHT31;55785;47.946;20.540;2023-03-14T03:51:36;0.92;77.32
67586;SHT31;55785;47.946;20.540;2023-03-14T03:54:01;0.88;77.38
67586;SHT31;55785;47.946;20.540;2023-03-14T03:56:27;0.89;77.46
67586;SHT31;55785;47.946;20.540;2023-03-14T03:58:52;1.03;77.51
67586;SHT31;55785;47.946;20.540;2023-03-14T04:01:17;0.92;77.61
67586;SHT31;55785;47.946;20.540;2023-03-14T04:03:43;0.95;78.02
67586;SHT31;55785;47.946;20.540;2023-03-14T04:06:10;1.03;77.89
67586;SHT31;55785;47.946;20.540;2023-03-14T04:08:37;1.05;78.47
67586;SHT31;55785;47.946;20.540;2023-03-14T04:11:03;1.13;78.61
67586;SHT31;55785;47.946;20.540;2023-03-14T04:13:28;1.22;78.12
67586;SHT31;55785;47.946;20.540;2023-03-14T04:15:55;1.29;78.21
67586;SHT31;55785;47.946;20.540;2023-03-14T04:18:21;1.33;77.93
67586;SHT31;55785;47.946;20.540;2023-03-14T04:20:51;1.40;77.95
67586;SHT31;55785;47.946;20.540;2023-03-14T04:23:17;1.54;77.98
67586;SHT31;55785;47.946;20.540;2023-03-14T04:25:42;1.55;78.48
67586;SHT31;55785;47.946;20.540;2023-03-14T04:28:07;1.64;77.89
67586;SHT31;55785;47.946;20.540;2023-03-14T04:30:33;1.86;77.46
67586;SHT31;55785;47.946;20.540;2023-03-14T04:32:58;2.03;77.46
67586;SHT31;55785;47.946;20.540;2023-03-14T04:35:24;2.19;76.67
67586;SHT31;55785;47.946;20.540;2023-03-14T04:37:49;2.19;76.62
67586;SHT31;55785;47.946;20.540;2023-03-14T04:40:15;2.18;76.77
67586;SHT31;55785;47.946;20.540;2023-03-14T04:42:41;2.20;76.47
67586;SHT31;55785;47.946;20.540;2023-03-14T04:45:07;2.25;76.48
67586;SHT31;55785;47.946;20.540;2023-03-14T04:47:32;2.33;76.47
67586;SHT31;55785;47.946;20.540;2023-03-14T04:49:58;2.40;76.02
67586;SHT31;55785;47.946;20.540;2023-03-14T04:52:23;2.51;75.46
67586;SHT31;55785;47.946;20.540;2023-03-14T04:54:48;2.73;75.40
67586;SHT31;55785;47.946;20.540;2023-03-14T04:57:14;2.73;75.27
67586;SHT31;55785;47.946;20.540;2023-03-14T04:59:39;2.70;75.29
67586;SHT31;55785;47.946;20.540;2023-03-14T05:02:04;2.78;75.45
67586;SHT31;55785;47.946;20.540;2023-03-14T05:04:30;2.84;75.84
67586;SHT31;55785;47.946;20.540;2023-03-14T05:06:55;2.78;77.13
67586;SHT31;55785;47.946;20.540;2023-03-14T05:09:20;3.02;75.59
67586;SHT31;55785;47.946;20.540;2023-03-14T05:11:46;3.09;75.62
67586;SHT31;55785;47.946;20.540;2023-03-14T05:14:11;3.20;74.87
67586;SHT31;55785;47.946;20.540;2023-03-14T05:16:36;3.33;74.83
67586;SHT31;55785;47.946;20.540;2023-03-14T05:19:02;3.40;74.62
67586;SHT31;55785;47.946;20.540;2023-03-14T05:21:27;3.57;73.50
67586;SHT31;55785;47.946;20.540;2023-03-14T05:23:52;3.56;75.90
67586;SHT31;55785;47.946;20.540;2023-03-14T05:26:18;3.62;75.56
67586;SHT31;55785;47.946;20.540;2023-03-14T05:28:43;3.57;75.32
67586;SHT31;55785;47.946;20.540;2023-03-14T05:31:09;3.63;74.11
67586;SHT31;55785;47.946;20.540;2023-03-14T05:33:34;3.60;76.74
67586;SHT31;55785;47.946;20.540;2023-03-14T05:36:00;3.77;76.58
67586;SHT31;55785;47.946;20.540;2023-03-14T05:38:25;3.70;75.58
67586;SHT31;55785;47.946;20.540;2023-03-14T05:40:50;3.71;74.97
67586;SHT31;55785;47.946;20.540;2023-03-14T05:43:16;3.78;74.54
67586;SHT31;55785;47.946;20.540;2023-03-14T05:45:42;3.90;74.92
67586;SHT31;55785;47.946;20.540;2023-03-14T05:48:07;3.93;74.84
67586;SHT31;55785;47.946;20.540;2023-03-14T05:50:32;3.97;74.71
67586;SHT31;55785;47.946;20.540;2023-03-14T05:52:58;4.01;74.21
67586;SHT31;55785;47.946;20.540;2023-03-14T05:55:23;4.04;75.41
67586;SHT31;55785;47.946;20.540;2023-03-14T05:57:49;4.17;75.16
67586;SHT31;55785;47.946;20.540;2023-03-14T06:00:14;4.12;75.66
67586;SHT31;55785;47.946;20.540;2023-03-14T06:02:40;4.14;75.15
67586;SHT31;55785;47.946;20.540;2023-03-14T06:05:06;4.24;74.39
67586;SHT31;55785;47.946;20.540;2023-03-14T06:07:31;4.29;74.48
67586;SHT31;55785;47.946;20.540;2023-03-14T06:09:56;4.29;73.69
67586;SHT31;55785;47.946;20.540;2023-03-14T06:12:22;4.41;73.22
67586;SHT31;55785;47.946;20.540;2023-03-14T06:14:47;4.63;72.72
67586;SHT31;55785;47.946;20.540;2023-03-14T06:17:12;4.67;73.20
67586;SHT31;55785;47.946;20.540;2023-03-14T06:19:38;4.80;72.84
67586;SHT31;55785;47.946;20.540;2023-03-14T06:22:03;4.86;72.78
67586;SHT31;55785;47.946;20.540;2023-03-14T06:24:28;4.95;71.66
67586;SHT31;55785;47.946;20.540;2023-03-14T06:26:54;5.17;72.29
67586;SHT31;55785;47.946;20.540;2023-03-14T06:29:19;5.20;75.83
67586;SHT31;55785;47.946;20.540;2023-03-14T06:31:44;5.34;73.84
67586;SHT31;55785;47.946;20.540;2023-03-14T06:34:10;5.36;72.83
67586;SHT31;55785;47.946;20.540;2023-03-14T06:36:35;5.39;70.70
67586;SHT31;55785;47.946;20.540;2023-03-14T06:39:00;5.51;71.47
67586;SHT31;55785;47.946;20.540;2023-03-14T06:41:26;5.62;73.36
67586;SHT31;55785;47.946;20.540;2023-03-14T06:43:51;5.77;71.11
67586;SHT31;55785;47.946;20.540;2023-03-14T06:46:17;5.96;66.99
67586;SHT31;55785;47.946;20.540;2023-03-14T06:48:42;5.97;68.40
67586;SHT31;55785;47.946;20.540;2023-03-14T06:51:08;6.10;69.42
67586;SHT31;55785;47.946;20.540;2023-03-14T06:53:33;6.18;66.60
67586;SHT31;55785;47.946;20.540;2023-03-14T06:55:58;6.22;65.18
67586;SHT31;55785;47.946;20.540;2023-03-14T06:58:24;6.32;66.76
67586;SHT31;55785;47.946;20.540;2023-03-14T07:00:49;6.42;64.52
67586;SHT31;55785;47.946;20.540;2023-03-14T07:03:15;6.62;65.76
67586;SHT31;55785;47.946;20.540;2023-03-14T07:05:40;6.76;66.29
67586;SHT31;55785;47.946;20.540;2023-03-14T07:08:07;6.82;62.37
67586;SHT31;55785;47.946;20.540;2023-03-14T07:10:32;6.80;61.69
67586;SHT31;55785;47.946;20.540;2023-03-14T07:12:58;6.92;61.83
67586;SHT31;55785;47.946;20.540;2023-03-14T07:15:23;6.99;61.58
67586;SHT31;55785;47.946;20.540;2023-03-14T07:17:49;7.01;61.66
67586;SHT31;55785;47.946;20.540;2023-03-14T07:20:14;7.13;60.24
67586;SHT31;55785;47.946;20.540;2023-03-14T07:22:40;7.13;61.81
67586;SHT31;55785;47.946;20.540;2023-03-14T07:25:05;7.13;62.22
67586;SHT31;55785;47.946;20.540;2023-03-14T07:27:31;7.07;60.33
67586;SHT31;55785;47.946;20.540;2023-03-14T07:29:56;7.13;61.25
67586;SHT31;55785;47.946;20.540;2023-03-14T07:32:21;7.13;60.24
67586;SHT31;55785;47.946;20.540;2023-03-14T07:34:50;7.13;61.43
67586;SHT31;55785;47.946;20.540;2023-03-14T07:37:15;7.21;60.25
67586;SHT31;55785;47.946;20.540;2023-03-14T07:39:43;7.30;59.63
67586;SHT31;55785;47.946;20.540;2023-03-14T07:42:09;7.37;60.24
67586;SHT31;55785;47.946;20.540;2023-03-14T07:44:34;7.41;59.28
67586;SHT31;55785;47.946;20.540;2023-03-14T07:46:59;7.41;60.09
67586;SHT31;55785;47.946;20.540;2023-03-14T07:49:25;7.43;59.55
67586;SHT31;55785;47.946;20.540;2023-03-14T07:51:50;7.31;60.16
67586;SHT31;55785;47.946;20.540;2023-03-14T07:54:16;7.35;61.49
67586;SHT31;55785;47.946;20.540;2023-03-14T07:56:41;7.37;60.83
67586;SHT31;55785;47.946;20.540;2023-03-14T07:59:06;7.51;60.48
67586;SHT31;55785;47.946;20.540;2023-03-14T08:01:32;7.51;62.78
67586;SHT31;55785;47.946;20.540;2023-03-14T08:03:57;7.59;62.23
67586;SHT31;55785;47.946;20.540;2023-03-14T08:06:23;7.64;60.35
67586;SHT31;55785;47.946;20.540;2023-03-14T08:08:48;7.69;60.59
67586;SHT31;55785;47.946;20.540;2023-03-14T08:11:14;7.62;60.21
67586;SHT31;55785;47.946;20.540;2023-03-14T08:13:39;7.65;59.11
67586;SHT31;55785;47.946;20.540;2023-03-14T08:16:05;7.67;59.10
67586;SHT31;55785;47.946;20.540;2023-03-14T08:18:30;7.71;58.93
67586;SHT31;55785;47.946;20.540;2023-03-14T08:20:56;7.71;58.04
67586;SHT31;55785;47.946;20.540;2023-03-14T08:23:21;7.83;58.83
67586;SHT31;55785;47.946;20.540;2023-03-14T08:25:50;7.86;59.04
67586;SHT31;55785;47.946;20.540;2023-03-14T08:28:16;7.92;58.22
67586;SHT31;55785;47.946;20.540;2023-03-14T08:30:42;8.12;58.31
67586;SHT31;55785;47.946;20.540;2023-03-14T08:33:07;8.26;57.62
67586;SHT31;55785;47.946;20.540;2023-03-14T08:35:33;8.38;57.84
67586;SHT31;55785;47.946;20.540;2023-03-14T08:37:58;8.36;57.51
67586;SHT31;55785;47.946;20.540;2023-03-14T08:40:23;8.37;56.63
67586;SHT31;55785;47.946;20.540;2023-03-14T08:42:49;8.36;56.54
67586;SHT31;55785;47.946;20.540;2023-03-14T08:45:16;8.43;57.42
67586;SHT31;55785;47.946;20.540;2023-03-14T08:47:42;8.64;57.93
67586;SHT31;55785;47.946;20.540;2023-03-14T08:50:08;8.55;56.68
67586;SHT31;55785;47.946;20.540;2023-03-14T08:52:33;8.72;57.17
67586;SHT31;55785;47.946;20.540;2023-03-14T08:54:59;8.78;56.03
67586;SHT31;55785;47.946;20.540;2023-03-14T08:57:24;8.86;56.00
67586;SHT31;55785;47.946;20.540;2023-03-14T08:59:50;8.92;56.97
67586;SHT31;55785;47.946;20.540;2023-03-14T09:02:15;9.02;55.90
67586;SHT31;55785;47.946;20.540;2023-03-14T09:04:40;9.12;56.63
67586;SHT31;55785;47.946;20.540;2023-03-14T09:07:06;9.36;55.92
67586;SHT31;55785;47.946;20.540;2023-03-14T09:09:32;9.55;56.47
67586;SHT31;55785;47.946;20.540;2023-03-14T09:11:57;9.71;55.11
67586;SHT31;55785;47.946;20.540;2023-03-14T09:14:23;9.94;53.65
67586;SHT31;55785;47.946;20.540;2023-03-14T09:16:48;10.09;57.18
67586;SHT31;55785;47.946;20.540;2023-03-14T09:19:14;10.09;53.23
67586;SHT31;55785;47.946;20.540;2023-03-14T09:21:39;10.22;52.78
67586;SHT31;55785;47.946;20.540;2023-03-14T09:24:05;10.35;53.71
67586;SHT31;55785;47.946;20.540;2023-03-14T09:26:31;10.43;53.44
67586;SHT31;55785;47.946;20.540;2023-03-14T09:28:56;10.59;52.35
67586;SHT31;55785;47.946;20.540;2023-03-14T09:31:21;10.91;54.83
67586;SHT31;55785;47.946;20.540;2023-03-14T09:33:47;11.00;51.33
67586;SHT31;55785;47.946;20.540;2023-03-14T09:36:12;11.03;53.34
67586;SHT31;55785;47.946;20.540;2023-03-14T09:38:37;11.14;53.23
67586;SHT31;55785;47.946;20.540;2023-03-14T09:41:12;11.29;52.42
67586;SHT31;55785;47.946;20.540;2023-03-14T09:43:38;11.43;51.88
67586;SHT31;55785;47.946;20.540;2023-03-14T09:46:05;11.43;51.52
67586;SHT31;55785;47.946;20.540;2023-03-14T09:48:33;11.61;51.36
67586;SHT31;55785;47.946;20.540;2023-03-14T09:51:02;11.42;53.14
67586;SHT31;55785;47.946;20.540;2023-03-14T09:53:39;11.65;52.97
67586;SHT31;55785;47.946;20.540;2023-03-14T09:56:12;11.76;51.18
67586;SHT31;55785;47.946;20.540;2023-03-14T09:58:41;11.86;51.14
67586;SHT31;55785;47.946;20.540;2023-03-14T10:01:11;11.97;52.60
67586;SHT31;55785;47.946;20.540;2023-03-14T10:03:39;12.07;52.03
67586;SHT31;55785;47.946;20.540;2023-03-14T10:06:11;12.34;51.19
67586;SHT31;55785;47.946;20.540;2023-03-14T10:08:42;12.54;51.95
67586;SHT31;55785;47.946;20.540;2023-03-14T10:11:16;12.88;50.63
67586;SHT31;55785;47.946;20.540;2023-03-14T10:14:07;13.07;49.02
67586;SHT31;55785;47.946;20.540;2023-03-14T10:16:40;13.48;50.32
67586;SHT31;55785;47.946;20.540;2023-03-14T10:19:16;13.46;48.38
67586;SHT31;55785;47.946;20.540;2023-03-14T10:21:51;13.57;46.76
67586;SHT31;55785;47.946;20.540;2023-03-14T10:24:25;13.71;47.27
67586;SHT31;55785;47.946;20.540;2023-03-14T10:26:57;14.10;48.59
67586;SHT31;55785;47.946;20.540;2023-03-14T10:29:23;14.23;46.03
67586;SHT31;55785;47.946;20.540;2023-03-14T10:31:57;14.13;46.76
67586;SHT31;55785;47.946;20.540;2023-03-14T10:34:34;14.23;46.85
67586;SHT31;55785;47.946;20.540;2023-03-14T10:37:07;14.61;47.43
67586;SHT31;55785;47.946;20.540;2023-03-14T10:42:14;15.01;45.93
67586;SHT31;55785;47.946;20.540;2023-03-14T10:44:41;15.39;43.96
67586;SHT31;55785;47.946;20.540;2023-03-14T10:47:12;15.47;43.96
67586;SHT31;55785;47.946;20.540;2023-03-14T10:49:40;15.46;43.30
67586;SHT31;55785;47.946;20.540;2023-03-14T10:52:28;15.50;44.34
67586;SHT31;55785;47.946;20.540;2023-03-14T10:54:57;15.71;44.34
67586;SHT31;55785;47.946;20.540;2023-03-14T10:57:23;15.73;42.97
67586;SHT31;55785;47.946;20.540;2023-03-14T10:59:48;15.93;43.03
67586;SHT31;55785;47.946;20.540;2023-03-14T11:07:45;15.87;41.47
67586;SHT31;55785;47.946;20.540;2023-03-14T11:18:18;17.38;39.97
67586;SHT31;55785;47.946;20.540;2023-03-14T11:23:16;17.85;40.60
67586;SHT31;55785;47.946;20.540;2023-03-14T11:28:39;17.30;40.05
67586;SHT31;55785;47.946;20.540;2023-03-14T11:31:17;17.14;40.36
67586;SHT31;55785;47.946;20.540;2023-03-14T11:33:57;18.00;42.57
67586;SHT31;55785;47.946;20.540;2023-03-14T11:36:38;17.35;39.63
67586;SHT31;55785;47.946;20.540;2023-03-14T11:39:10;17.21;39.47
67586;SHT31;55785;47.946;20.540;2023-03-14T11:41:42;17.74;39.88
67586;SHT31;55785;47.946;20.540;2023-03-14T11:44:30;17.76;40.28
67586;SHT31;55785;47.946;20.540;2023-03-14T11:47:10;17.34;39.89
67586;SHT31;55785;47.946;20.540;2023-03-14T11:49:42;17.31;40.03
67586;SHT31;55785;47.946;20.540;2023-03-14T11:52:17;17.18;41.37
67586;SHT31;55785;47.946;20.540;2023-03-14T11:54:50;16.91;41.00
67586;SHT31;55785;47.946;20.540;2023-03-14T11:57:19;16.48;42.12
67586;SHT31;55785;47.946;20.540;2023-03-14T11:59:52;16.68;43.14
67586;SHT31;55785;47.946;20.540;2023-03-14T12:10:12;16.69;41.38
67586;SHT31;55785;47.946;20.540;2023-03-14T12:12:38;16.65;42.52
67586;SHT31;55785;47.946;20.540;2023-03-14T12:15:05;17.00;41.91
67586;SHT31;55785;47.946;20.540;2023-03-14T12:17:35;17.21;40.17
67586;SHT31;55785;47.946;20.540;2023-03-14T12:20:12;17.41;40.80
67586;SHT31;55785;47.946;20.540;2023-03-14T12:22:47;17.42;40.80
67586;SHT31;55785;47.946;20.540;2023-03-14T12:25:39;17.41;39.70
67586;SHT31;55785;47.946;20.540;2023-03-14T12:28:17;17.61;40.22
67586;SHT31;55785;47.946;20.540;2023-03-14T12:30:43;17.59;39.29
67586;SHT31;55785;47.946;20.540;2023-03-14T12:35:47;17.62;40.23
67586;SHT31;55785;47.946;20.540;2023-03-14T12:40:57;17.04;40.99
67586;SHT31;55785;47.946;20.540;2023-03-14T12:43:28;16.90;41.58
67586;SHT31;55785;47.946;20.540;2023-03-14T12:51:41;17.07;40.82
67586;SHT31;55785;47.946;20.540;2023-03-14T13:02:00;16.82;40.81
67586;SHT31;55785;47.946;20.540;2023-03-14T13:04:49;16.87;41.26
67586;SHT31;55785;47.946;20.540;2023-03-14T13:07:35;17.07;42.39
67586;SHT31;55785;47.946;20.540;2023-03-14T13:17:51;17.20;40.42
67586;SHT31;55785;47.946;20.540;2023-03-14T13:20:31;16.99;40.57
67586;SHT31;55785;47.946;20.540;2023-03-14T13:22:57;17.54;40.67
67586;SHT31;55785;47.946;20.540;2023-03-14T13:25:23;17.92;39.15
67586;SHT31;55785;47.946;20.540;2023-03-14T13:27:49;18.12;39.94
67586;SHT31;55785;47.946;20.540;2023-03-14T13:30:19;18.61;39.27
67586;SHT31;55785;47.946;20.540;2023-03-14T13:32:46;18.43;38.88
67586;SHT31;55785;47.946;20.540;2023-03-14T13:35:21;18.55;38.19
67586;SHT31;55785;47.946;20.540;2023-03-14T13:37:47;18.18;37.93
67586;SHT31;55785;47.946;20.540;2023-03-14T13:40:23;18.02;38.94
67586;SHT31;55785;47.946;20.540;2023-03-14T13:42:49;17.39;40.63
67586;SHT31;55785;47.946;20.540;2023-03-14T13:45:14;17.51;42.00
67586;SHT31;55785;47.946;20.540;2023-03-14T13:47:39;17.44;40.20
67586;SHT31;55785;47.946;20.540;2023-03-14T13:50:05;17.18;41.83
67586;SHT31;55785;47.946;20.540;2023-03-14T13:52:40;17.28;40.65
67586;SHT31;55785;47.946;20.540;2023-03-14T13:55:12;17.11;41.51
67586;SHT31;55785;47.946;20.540;2023-03-14T13:57:53;17.49;40.78
67586;SHT31;55785;47.946;20.540;2023-03-14T14:00:25;17.81;40.94
67586;SHT31;55785;47.946;20.540;2023-03-14T14:02:50;18.06;40.57
67586;SHT31;55785;47.946;20.540;2023-03-14T14:05:16;17.92;40.98
67586;SHT31;55785;47.946;20.540;2023-03-14T14:07:42;17.58;40.50
67586;SHT31;55785;47.946;20.540;2023-03-14T14:10:11;17.18;42.32
67586;SHT31;55785;47.946;20.540;2023-03-14T14:12:50;17.03;42.40
67586;SHT31;55785;47.946;20.540;2023-03-14T14:15:23;16.90;42.75
67586;SHT31;55785;47.946;20.540;2023-03-14T14:17:53;16.84;42.97
67586;SHT31;55785;47.946;20.540;2023-03-14T14:20:29;16.84;43.36
67586;SHT31;55785;47.946;20.540;2023-03-14T14:22:55;16.89;44.00
67586;SHT31;55785;47.946;20.540;2023-03-14T14:25:20;16.87;44.38
67586;SHT31;55785;47.946;20.540;2023-03-14T14:27:50;16.89;43.02
67586;SHT31;55785;47.946;20.540;2023-03-14T14:32:45;16.77;44.19
67586;SHT31;55785;47.946;20.540;2023-03-14T14:35:25;16.76;43.47
67586;SHT31;55785;47.946;20.540;2023-03-14T14:37:51;16.79;44.32
67586;SHT31;55785;47.946;20.540;2023-03-14T14:40:30;16.89;42.71
67586;SHT31;55785;47.946;20.540;2023-03-14T14:43:04;16.93;42.15
67586;SHT31;55785;47.946;20.540;2023-03-14T14:45:30;16.87;41.94
67586;SHT31;55785;47.946;20.540;2023-03-14T14:52:56;16.75;41.64
67586;SHT31;55785;47.946;20.540;2023-03-14T14:55:22;16.79;42.06
67586;SHT31;55785;47.946;20.540;2023-03-14T14:57:53;16.80;41.83
67586;SHT31;55785;47.946;20.540;2023-03-14T15:00:21;16.79;41.98
67586;SHT31;55785;47.946;20.540;2023-03-14T15:02:49;16.76;42.97
67586;SHT31;55785;47.946;20.540;2023-03-14T15:05:20;16.77;41.60
67586;SHT31;55785;47.946;20.540;2023-03-14T15:07:46;16.75;41.80
67586;SHT31;55785;47.946;20.540;2023-03-14T15:10:17;16.68;42.37
67586;SHT31;55785;47.946;20.540;2023-03-14T15:12:43;16.65;41.99
67586;SHT31;55785;47.946;20.540;2023-03-14T15:15:10;16.63;42.64
67586;SHT31;55785;47.946;20.540;2023-03-14T15:17:36;16.61;42.75
67586;SHT31;55785;47.946;20.540;2023-03-14T15:20:10;16.56;43.28
67586;SHT31;55785;47.946;20.540;2023-03-14T15:22:39;16.51;44.45
67586;SHT31;55785;47.946;20.540;2023-03-14T15:25:05;16.38;43.23
67586;SHT31;55785;47.946;20.540;2023-03-14T15:27:30;16.28;43.58
67586;SHT31;55785;47.946;20.540;2023-03-14T15:29:56;16.15;43.87
67586;SHT31;55785;47.946;20.540;2023-03-14T15:32:21;16.21;44.20
67586;SHT31;55785;47.946;20.540;2023-03-14T15:34:46;16.10;45.06
67586;SHT31;55785;47.946;20.540;2023-03-14T15:37:14;16.04;44.20
67586;SHT31;55785;47.946;20.540;2023-03-14T15:39:39;15.97;44.62
67586;SHT31;55785;47.946;20.540;2023-03-14T15:42:05;15.94;44.51
67586;SHT31;55785;47.946;20.540;2023-03-14T15:44:31;15.93;44.33
67586;SHT31;55785;47.946;20.540;2023-03-14T15:46:56;15.89;44.23
67586;SHT31;55785;47.946;20.540;2023-03-14T15:49:21;15.86;44.50
67586;SHT31;55785;47.946;20.540;2023-03-14T15:51:47;15.74;45.39
67586;SHT31;55785;47.946;20.540;2023-03-14T15:54:12;15.63;46.73
67586;SHT31;55785;47.946;20.540;2023-03-14T15:56:38;15.62;45.70
67586;SHT31;55785;47.946;20.540;2023-03-14T15:59:03;15.52;45.90
67586;SHT31;55785;47.946;20.540;2023-03-14T16:01:28;15.47;45.85
67586;SHT31;55785;47.946;20.540;2023-03-14T16:03:54;15.50;45.88
67586;SHT31;55785;47.946;20.540;2023-03-14T16:06:19;15.49;45.95
67586;SHT31;55785;47.946;20.540;2023-03-14T16:08:45;15.46;46.08
67586;SHT31;55785;47.946;20.540;2023-03-14T16:11:12;15.45;45.84
67586;SHT31;55785;47.946;20.540;2023-03-14T16:13:39;15.42;46.29
67586;SHT31;55785;47.946;20.540;2023-03-14T16:16:05;15.38;46.37
67586;SHT31;55785;47.946;20.540;2023-03-14T16:18:32;15.36;46.87
67586;SHT31;55785;47.946;20.540;2023-03-14T16:21:04;15.24;48.03
67586;SHT31;55785;47.946;20.540;2023-03-14T16:23:29;15.11;49.81
67586;SHT31;55785;47.946;20.540;2023-03-14T16:25:55;14.97;49.53
67586;SHT31;55785;47.946;20.540;2023-03-14T16:28:21;14.76;50.04
67586;SHT31;55785;47.946;20.540;2023-03-14T16:30:47;14.60;50.79
67586;SHT31;55785;47.946;20.540;2023-03-14T16:33:13;14.47;51.33
67586;SHT31;55785;47.946;20.540;2023-03-14T16:35:39;14.33;51.23
67586;SHT31;55785;47.946;20.540;2023-03-14T16:38:05;14.09;55.00